createdAt,value
2024-02-03T00:00:20.539Z,27.75
2024-02-03T00:02:47.660Z,19.75
2024-02-03T00:05:14.672Z,15.00
2024-02-03T00:07:41.721Z,11.50
2024-02-03T00:10:09.059Z,11.50
2024-02-03T00:12:36.506Z,27.75
2024-02-03T00:15:03.657Z,13.00
2024-02-03T00:17:31.041Z,30.75
2024-02-03T00:19:58.110Z,15.00
2024-02-03T00:22:25.135Z,15.50
2024-02-03T00:24:52.231Z,27.00
2024-02-03T00:27:19.390Z,22.00
2024-02-03T00:29:46.381Z,7.25
2024-02-03T00:32:13.321Z,12.25
2024-02-03T00:34:42.136Z,10.25
2024-02-03T00:37:09.206Z,18.50
2024-02-03T00:39:36.300Z,14.50
2024-02-03T00:42:03.616Z,19.75
2024-02-03T00:44:30.946Z,14.00
2024-02-03T00:46:58.011Z,16.25
2024-02-03T00:49:25.225Z,12.00
2024-02-03T00:51:52.504Z,15.75
2024-02-03T00:54:19.887Z,21.50
2024-02-03T00:56:46.836Z,12.00
2024-02-03T00:59:13.935Z,16.25
2024-02-03T01:01:41.030Z,24.50
2024-02-03T01:04:08.093Z,22.25
2024-02-03T01:06:35.287Z,11.00
2024-02-03T01:09:02.390Z,21.00
2024-02-03T01:11:29.434Z,20.75
2024-02-03T01:13:56.502Z,19.50
2024-02-03T01:16:23.809Z,28.00
2024-02-03T01:18:51.365Z,14.50
2024-02-03T01:21:19.546Z,15.75
2024-02-03T01:23:46.575Z,26.25
2024-02-03T01:26:13.749Z,17.00
2024-02-03T01:28:41.233Z,25.75
2024-02-03T01:31:10.122Z,20.50
2024-02-03T01:33:37.272Z,20.25
2024-02-03T01:36:04.925Z,22.00
2024-02-03T01:38:32.216Z,18.00
2024-02-03T01:40:59.373Z,18.25
2024-02-03T01:43:26.495Z,28.50
2024-02-03T01:45:53.686Z,25.50
2024-02-03T01:48:21.214Z,29.25
2024-02-03T01:50:51.505Z,30.00
2024-02-03T01:53:19.766Z,30.00
2024-02-03T01:55:47.773Z,27.75
2024-02-03T01:58:14.877Z,33.75
2024-02-03T02:00:42.093Z,16.75
2024-02-03T02:03:09.256Z,21.50
2024-02-03T02:05:37.839Z,26.00
2024-02-03T02:08:05.214Z,26.75
2024-02-03T02:10:32.604Z,28.75
2024-02-03T02:12:59.743Z,6.25
2024-02-03T02:15:26.790Z,19.50
2024-02-03T02:18:01.210Z,28.00
2024-02-03T02:20:28.619Z,27.50
2024-02-03T02:22:55.744Z,31.00
2024-02-03T02:25:23.043Z,28.75
2024-02-03T02:27:54.231Z,22.75
2024-02-03T02:30:22.113Z,30.00
2024-02-03T02:32:49.574Z,23.25
2024-02-03T02:35:16.725Z,30.50
2024-02-03T02:37:43.841Z,12.25
2024-02-03T02:40:12.684Z,27.00
2024-02-03T02:42:40.169Z,26.50
2024-02-03T02:45:07.610Z,37.75
2024-02-03T02:47:34.710Z,29.75
2024-02-03T02:50:01.779Z,31.00
2024-02-03T02:52:28.934Z,22.25
2024-02-03T02:54:57.728Z,30.50
2024-02-03T02:57:24.886Z,26.75
2024-02-03T02:59:51.845Z,32.50
2024-02-03T03:02:18.961Z,32.25
2024-02-03T03:04:46.068Z,30.75
2024-02-03T03:07:16.316Z,22.25
2024-02-03T03:09:43.895Z,27.50
2024-02-03T03:12:11.437Z,31.50
2024-02-03T03:14:38.953Z,30.75
2024-02-03T03:17:06.190Z,20.75
2024-02-03T03:19:38.335Z,34.50
2024-02-03T03:22:07.197Z,25.25
2024-02-03T03:24:34.430Z,29.25
2024-02-03T03:27:01.734Z,39.50
2024-02-03T03:29:28.827Z,26.50
2024-02-03T03:31:55.760Z,26.00
2024-02-03T03:34:23.073Z,24.25
2024-02-03T03:36:50.659Z,20.75
2024-02-03T03:39:17.595Z,28.75
2024-02-03T03:41:44.541Z,15.50
2024-02-03T03:44:12.139Z,40.50
2024-02-03T03:46:39.881Z,31.75
2024-02-03T03:49:07.149Z,35.75
2024-02-03T03:51:34.367Z,21.25
2024-02-03T03:54:01.413Z,18.50
2024-02-03T03:56:28.441Z,29.50
2024-02-03T03:58:55.498Z,26.00
2024-02-03T04:01:22.610Z,31.00
2024-02-03T04:03:49.797Z,35.50
2024-02-03T04:06:17.031Z,29.75
2024-02-03T04:08:44.208Z,24.75
2024-02-03T04:11:11.394Z,21.75
2024-02-03T04:13:40.553Z,51.33
2024-02-03T04:16:07.853Z,40.75
2024-02-03T04:18:34.985Z,30.25
2024-02-03T04:21:02.453Z,33.50
2024-02-03T04:23:29.466Z,32.75
2024-02-03T04:25:57.306Z,37.00
2024-02-03T04:28:24.287Z,42.00
2024-02-03T04:30:51.470Z,35.00
2024-02-03T04:33:18.715Z,35.25
2024-02-03T04:35:45.724Z,23.00
2024-02-03T04:38:12.716Z,19.50
2024-02-03T04:40:39.759Z,17.25
2024-02-03T04:43:25.691Z,16.75
2024-02-03T04:45:52.953Z,12.25
2024-02-03T04:48:20.206Z,23.00
2024-02-03T04:50:47.476Z,16.50
2024-02-03T04:53:14.555Z,17.25
2024-02-03T04:55:42.865Z,17.75
2024-02-03T04:58:09.943Z,13.00
2024-02-03T05:00:36.946Z,26.50
2024-02-03T05:03:04.119Z,12.25
2024-02-03T05:05:31.071Z,21.25
2024-02-03T05:07:58.138Z,22.25
2024-02-03T05:10:25.146Z,21.25
2024-02-03T05:12:52.104Z,24.75
2024-02-03T05:15:19.994Z,20.25
2024-02-03T05:17:47.231Z,28.25
2024-02-03T05:20:14.383Z,23.25
2024-02-03T05:22:42.394Z,18.75
2024-02-03T05:25:12.156Z,17.50
2024-02-03T05:27:39.409Z,20.25
2024-02-03T05:30:07.297Z,25.25
2024-02-03T05:32:34.627Z,19.25
2024-02-03T05:35:01.606Z,17.50
2024-02-03T05:37:28.662Z,29.50
2024-02-03T05:39:55.734Z,29.75
2024-02-03T05:42:24.035Z,30.00
2024-02-03T05:44:51.158Z,36.00
2024-02-03T05:47:18.179Z,40.33
2024-02-03T05:49:45.307Z,37.75
2024-02-03T05:52:12.422Z,37.00
2024-02-03T05:54:39.512Z,37.75
2024-02-03T05:57:09.257Z,36.25
2024-02-03T05:59:41.604Z,42.50
2024-02-03T06:02:15.579Z,30.00
2024-02-03T06:04:42.880Z,29.75
2024-02-03T06:07:10.169Z,34.75
2024-02-03T06:09:37.210Z,33.25
2024-02-03T06:12:05.426Z,31.25
2024-02-03T06:14:33.417Z,26.00
2024-02-03T06:17:00.470Z,30.75
2024-02-03T06:19:27.530Z,21.00
2024-02-03T06:21:54.569Z,16.50
2024-02-03T06:24:21.666Z,11.25
2024-02-03T06:26:48.620Z,14.50
2024-02-03T06:29:15.653Z,16.25
2024-02-03T06:31:42.594Z,19.50
2024-02-03T06:34:09.683Z,19.50
2024-02-03T06:36:37.011Z,24.00
2024-02-03T06:39:05.119Z,15.50
2024-02-03T06:41:32.321Z,20.75
2024-02-03T06:43:59.259Z,7.25
2024-02-03T06:46:26.343Z,15.50
2024-02-03T06:48:53.699Z,18.75
2024-02-03T06:51:21.020Z,12.50
2024-02-03T06:53:48.177Z,13.75
2024-02-03T06:56:15.234Z,11.75
2024-02-03T06:58:42.318Z,10.50
2024-02-03T07:01:09.479Z,14.00
2024-02-03T07:03:36.686Z,16.75
2024-02-03T07:06:03.924Z,18.25
2024-02-03T07:08:31.506Z,16.50
2024-02-03T07:10:58.526Z,16.75
2024-02-03T07:13:26.665Z,15.00
2024-02-03T07:15:53.661Z,21.00
2024-02-03T07:18:21.331Z,17.50
2024-02-03T07:20:48.726Z,21.25
2024-02-03T07:23:15.719Z,16.25
2024-02-03T07:25:42.909Z,24.75
2024-02-03T07:28:09.945Z,17.75
2024-02-03T07:30:37.020Z,20.75
2024-02-03T07:33:05.877Z,10.25
2024-02-03T07:35:33.132Z,16.25
2024-02-03T07:38:00.297Z,23.00
2024-02-03T07:40:27.288Z,16.00
2024-02-03T07:42:54.416Z,9.50
2024-02-03T07:45:21.725Z,20.75
2024-02-03T07:47:48.869Z,20.25
2024-02-03T07:50:16.196Z,12.50
2024-02-03T07:52:43.224Z,16.00
2024-02-03T07:55:10.228Z,22.75
2024-02-03T07:57:37.280Z,13.75
2024-02-03T08:00:04.640Z,13.25
2024-02-03T08:02:32.118Z,15.75
2024-02-03T08:04:59.222Z,12.50
2024-02-03T08:07:26.272Z,7.00
2024-02-03T08:09:53.267Z,8.00
2024-02-03T08:12:20.480Z,12.00
2024-02-03T08:14:47.450Z,13.00
2024-02-03T08:17:14.398Z,9.50
2024-02-03T08:19:41.576Z,18.00
2024-02-03T08:22:08.781Z,13.75
2024-02-03T08:24:36.194Z,7.00
2024-02-03T08:27:03.269Z,9.25
2024-02-03T08:29:30.327Z,10.50
2024-02-03T08:31:57.325Z,15.50
2024-02-03T08:34:24.476Z,11.75
2024-02-03T08:36:51.738Z,12.00
2024-02-03T08:41:48.833Z,8.75
2024-02-03T08:44:15.969Z,15.00
2024-02-03T08:46:43.338Z,11.00
2024-02-03T08:49:10.430Z,16.75
2024-02-03T08:51:39.461Z,19.50
2024-02-03T08:54:07.866Z,11.75
2024-02-03T08:56:34.875Z,13.00
2024-02-03T08:59:01.929Z,15.75
2024-02-03T09:01:29.103Z,14.25
2024-02-03T09:03:56.294Z,17.50
2024-02-03T09:06:23.334Z,15.00
2024-02-03T09:08:50.491Z,11.50
2024-02-03T09:11:17.606Z,15.75
2024-02-03T09:13:45.100Z,14.25
2024-02-03T09:16:12.290Z,13.00
2024-02-03T09:18:39.836Z,14.25
2024-02-03T09:21:11.491Z,10.00
2024-02-03T09:23:39.541Z,12.50
2024-02-03T09:26:10.081Z,7.00
2024-02-03T09:28:37.606Z,12.50
2024-02-03T09:31:06.631Z,10.00
2024-02-03T09:33:34.179Z,13.00
2024-02-03T09:36:05.553Z,8.50
2024-02-03T09:38:32.611Z,12.00
2024-02-03T09:41:00.390Z,11.50
2024-02-03T09:43:27.659Z,6.25
2024-02-03T09:45:55.582Z,7.75
2024-02-03T09:48:25.580Z,12.00
2024-02-03T09:50:52.891Z,15.50
2024-02-03T09:53:19.954Z,8.00
2024-02-03T09:55:47.336Z,10.00
2024-02-03T09:58:33.960Z,13.00
2024-02-03T10:01:02.361Z,8.00
2024-02-03T10:03:29.729Z,13.25
2024-02-03T10:06:02.625Z,16.50
2024-02-03T10:08:30.866Z,10.25
2024-02-03T10:10:58.359Z,12.50
2024-02-03T10:13:25.816Z,7.50
2024-02-03T10:16:04.314Z,13.00
2024-02-03T10:18:36.049Z,14.50
2024-02-03T10:21:04.758Z,13.00
2024-02-03T10:23:31.907Z,12.00
2024-02-03T10:26:00.293Z,15.75
2024-02-03T10:28:27.776Z,11.75
2024-02-03T10:31:01.955Z,10.25
2024-02-03T10:33:29.511Z,15.50
2024-02-03T10:35:58.314Z,11.75
2024-02-03T10:38:26.103Z,11.50
2024-02-03T10:40:54.594Z,11.75
2024-02-03T10:43:23.072Z,25.00
2024-02-03T10:46:02.095Z,24.25
2024-02-03T10:48:30.228Z,22.25
2024-02-03T10:51:10.457Z,24.00
2024-02-03T10:53:48.607Z,18.50
2024-02-03T10:56:18.558Z,14.25
2024-02-03T10:58:46.097Z,15.25
2024-02-03T11:01:19.044Z,23.00
2024-02-03T11:03:50.580Z,18.00
2024-02-03T11:06:34.198Z,13.25
2024-02-03T11:09:17.267Z,7.75
2024-02-03T11:11:52.235Z,15.25
2024-02-03T11:14:22.450Z,15.00
2024-02-03T11:17:02.219Z,13.75
2024-02-03T11:19:33.232Z,13.50
2024-02-03T11:22:03.928Z,10.25
2024-02-03T11:24:32.255Z,7.75
2024-02-03T11:27:09.757Z,12.50
2024-02-03T11:29:38.203Z,18.50
2024-02-03T11:32:08.145Z,11.50
2024-02-03T11:34:38.822Z,11.25
2024-02-03T11:37:07.826Z,7.75
2024-02-03T11:39:36.167Z,5.50
2024-02-03T11:42:09.122Z,12.25
2024-02-03T11:44:48.618Z,9.50
2024-02-03T11:47:20.308Z,14.50
2024-02-03T11:49:48.221Z,8.25
2024-02-03T11:52:15.912Z,13.50
2024-02-03T11:54:43.080Z,11.00
2024-02-03T11:57:10.552Z,14.00
2024-02-03T11:59:37.776Z,16.75
2024-02-03T12:02:07.909Z,10.25
2024-02-03T12:04:35.340Z,13.00
2024-02-03T12:07:03.012Z,18.00
2024-02-03T12:09:31.047Z,11.75
2024-02-03T12:12:00.241Z,19.75
2024-02-03T12:14:29.578Z,7.50
2024-02-03T12:16:58.726Z,12.50
2024-02-03T12:19:27.456Z,8.00
2024-02-03T12:21:56.515Z,11.50
2024-02-03T12:24:24.170Z,18.00
2024-02-03T12:26:51.329Z,12.25
2024-02-03T12:29:18.705Z,5.00
2024-02-03T12:31:45.742Z,11.50
2024-02-03T12:34:13.715Z,5.50
2024-02-03T12:36:40.856Z,10.75
2024-02-03T12:39:10.139Z,8.00
2024-02-03T12:41:37.638Z,10.50
2024-02-03T12:44:05.205Z,7.50
2024-02-03T12:46:32.384Z,15.25
2024-02-03T12:48:59.671Z,13.50
2024-02-03T12:51:30.186Z,6.75
2024-02-03T12:53:59.389Z,11.50
2024-02-03T12:56:26.694Z,12.00
2024-02-03T12:58:53.963Z,9.50
2024-02-03T13:01:21.269Z,9.50
2024-02-03T13:03:48.657Z,11.00
2024-02-03T13:06:16.862Z,6.50
2024-02-03T13:08:45.405Z,6.50
2024-02-03T13:11:16.539Z,6.25
2024-02-03T13:13:45.414Z,8.50
2024-02-03T13:16:12.985Z,13.50
2024-02-03T13:18:40.363Z,12.25
2024-02-03T13:21:07.453Z,11.25
2024-02-03T13:23:37.056Z,12.25
2024-02-03T13:26:05.998Z,11.75
2024-02-03T13:28:33.505Z,17.25
2024-02-03T13:31:00.878Z,10.00
2024-02-03T13:33:28.478Z,8.00
2024-02-03T13:35:55.839Z,4.50
2024-02-03T13:38:23.618Z,10.50
2024-02-03T13:40:50.603Z,12.75
2024-02-03T13:43:17.890Z,17.25
2024-02-03T13:45:45.228Z,6.50
2024-02-03T13:48:12.807Z,6.75
2024-02-03T13:50:40.237Z,9.00
2024-02-03T13:53:09.158Z,11.50
2024-02-03T13:55:36.874Z,8.50
2024-02-03T13:58:06.880Z,10.25
2024-02-03T14:00:36.200Z,12.75
2024-02-03T14:03:03.606Z,11.25
2024-02-03T14:05:31.169Z,11.00
2024-02-03T14:07:58.559Z,8.75
2024-02-03T14:10:25.636Z,6.50
2024-02-03T14:12:53.554Z,9.25
2024-02-03T14:15:20.752Z,12.75
2024-02-03T14:17:47.938Z,11.00
2024-02-03T14:20:15.354Z,6.75
2024-02-03T14:22:43.574Z,10.25
2024-02-03T14:25:11.642Z,12.25
2024-02-03T14:27:39.132Z,12.75
2024-02-03T14:30:08.350Z,12.25
2024-02-03T14:32:36.370Z,13.50
2024-02-03T14:35:04.439Z,10.00
2024-02-03T14:37:32.074Z,14.25
2024-02-03T14:39:59.349Z,12.75
2024-02-03T14:42:26.353Z,12.75
2024-02-03T14:44:53.471Z,15.75
2024-02-03T14:47:20.764Z,14.25
2024-02-03T14:49:48.193Z,8.00
2024-02-03T14:52:15.464Z,17.00
2024-02-03T14:54:43.354Z,11.25
2024-02-03T14:57:10.444Z,12.50
2024-02-03T14:59:37.804Z,15.50
2024-02-03T15:02:05.187Z,16.00
2024-02-03T15:04:32.478Z,19.00
2024-02-03T15:07:01.619Z,6.25
2024-02-03T15:09:29.226Z,16.00
2024-02-03T15:11:56.592Z,14.00
2024-02-03T15:14:23.960Z,20.00
2024-02-03T15:16:51.053Z,16.00
2024-02-03T15:19:18.518Z,15.00
2024-02-03T15:21:46.259Z,23.00
2024-02-03T15:24:13.704Z,17.25
2024-02-03T15:26:42.291Z,16.00
2024-02-03T15:29:09.384Z,20.50
2024-02-03T15:31:36.481Z,23.75
2024-02-03T15:34:04.250Z,23.50
2024-02-03T15:36:31.487Z,19.25
2024-02-03T15:38:58.696Z,18.75
2024-02-03T15:41:25.871Z,22.25
2024-02-03T15:43:53.530Z,20.25
2024-02-03T15:46:30.273Z,24.25
2024-02-03T15:49:03.773Z,12.75
2024-02-03T15:51:31.070Z,28.50
2024-02-03T15:53:58.098Z,34.25
2024-02-03T15:56:25.237Z,21.75
2024-02-03T15:58:52.552Z,27.50
2024-02-03T16:01:19.858Z,22.25
2024-02-03T16:03:47.363Z,24.00
2024-02-03T16:06:15.009Z,15.75
2024-02-03T16:08:44.357Z,20.00
2024-02-03T16:11:12.046Z,21.50
2024-02-03T16:13:42.296Z,20.75
2024-02-03T16:16:11.110Z,9.25
2024-02-03T16:18:38.460Z,19.75
2024-02-03T16:21:06.017Z,33.50
2024-02-03T16:23:33.416Z,24.50
2024-02-03T16:26:03.612Z,20.25
2024-02-03T16:28:32.327Z,16.25
2024-02-03T16:30:59.920Z,34.75
2024-02-03T16:33:28.851Z,22.25
2024-02-03T16:35:57.604Z,31.50
2024-02-03T16:38:25.784Z,28.00
2024-02-03T16:40:53.422Z,32.75
2024-02-03T16:43:20.556Z,23.75
2024-02-03T16:45:47.565Z,20.25
2024-02-03T16:48:14.704Z,28.75
2024-02-03T16:50:41.799Z,32.50
2024-02-03T16:53:08.808Z,26.50
2024-02-03T16:55:36.688Z,26.00
2024-02-03T16:58:04.065Z,38.75
2024-02-03T17:00:34.762Z,26.75
2024-02-03T17:03:01.896Z,24.75
2024-02-03T17:05:29.107Z,38.50
2024-02-03T17:07:56.174Z,30.75
2024-02-03T17:10:23.432Z,26.00
2024-02-03T17:12:50.518Z,37.00
2024-02-03T17:15:17.654Z,29.00
2024-02-03T17:17:44.828Z,30.50
2024-02-03T17:20:12.614Z,31.00
2024-02-03T17:22:39.749Z,40.00
2024-02-03T17:25:07.154Z,32.50
2024-02-03T17:27:34.395Z,34.00
2024-02-03T17:30:01.458Z,28.00
2024-02-03T17:32:30.208Z,45.50
2024-02-03T17:34:58.090Z,25.50
2024-02-03T17:37:25.893Z,39.00
2024-02-03T17:39:52.964Z,46.00
2024-02-03T17:42:20.086Z,41.75
2024-02-03T17:44:47.139Z,40.00
2024-02-03T17:47:14.299Z,50.50
2024-02-03T17:49:41.501Z,28.50
2024-02-03T17:52:10.869Z,35.50
2024-02-03T17:54:41.477Z,44.25
2024-02-03T17:57:08.671Z,48.25
2024-02-03T17:59:38.879Z,45.00
2024-02-03T18:02:06.162Z,45.00
2024-02-03T18:04:33.286Z,40.00
2024-02-03T18:07:00.793Z,39.50
2024-02-03T18:09:28.158Z,45.00
2024-02-03T18:11:55.667Z,42.00
2024-02-03T18:14:24.328Z,42.75
2024-02-03T18:16:51.517Z,54.00
2024-02-03T18:19:18.657Z,42.75
2024-02-03T18:21:45.897Z,27.25
2024-02-03T18:24:13.029Z,45.25
2024-02-03T18:26:40.174Z,43.00
2024-02-03T18:29:07.413Z,36.50
2024-02-03T18:31:35.347Z,43.75
2024-02-03T18:34:02.508Z,31.50
2024-02-03T18:36:30.185Z,50.75
2024-02-03T18:38:57.382Z,40.75
2024-02-03T18:41:24.430Z,39.75
2024-02-03T18:43:51.430Z,42.50
2024-02-03T18:46:18.761Z,28.25
2024-02-03T18:48:47.077Z,44.50
2024-02-03T18:51:14.248Z,32.00
2024-02-03T18:53:41.274Z,38.25
2024-02-03T18:56:08.385Z,37.25
2024-02-03T18:58:35.391Z,42.75
2024-02-03T19:01:04.292Z,43.75
2024-02-03T19:03:31.908Z,36.50
2024-02-03T19:05:59.080Z,36.25
2024-02-03T19:08:28.303Z,38.00
2024-02-03T19:10:55.683Z,39.75
2024-02-03T19:13:24.041Z,34.25
2024-02-03T19:15:51.519Z,37.00
2024-02-03T19:18:19.553Z,38.00
2024-02-03T19:20:47.409Z,36.75
2024-02-03T19:23:14.438Z,31.50
2024-02-03T19:25:41.728Z,38.00
2024-02-03T19:28:09.153Z,35.75
2024-02-03T19:30:36.248Z,34.75
2024-02-03T19:33:03.936Z,36.50
2024-02-03T19:35:31.322Z,25.00
2024-02-03T19:38:02.153Z,36.50
2024-02-03T19:40:30.209Z,30.25
2024-02-03T19:42:57.698Z,40.00
2024-02-03T19:45:26.276Z,45.25
2024-02-03T19:47:53.629Z,30.25
2024-02-03T19:50:24.022Z,36.00
2024-02-03T19:52:52.975Z,37.50
2024-02-03T19:55:20.575Z,27.75
2024-02-03T19:57:48.984Z,40.00
2024-02-03T20:00:17.366Z,39.50
2024-02-03T20:02:44.616Z,50.00
2024-02-03T20:05:11.784Z,28.75
2024-02-03T20:07:39.215Z,33.00
2024-02-03T20:10:07.290Z,33.00
2024-02-03T20:12:34.585Z,40.75
2024-02-03T20:15:01.670Z,33.50
2024-02-03T20:17:28.932Z,28.50
2024-02-03T20:19:56.604Z,37.25
2024-02-03T20:22:24.220Z,54.75
2024-02-03T20:24:51.401Z,32.00
2024-02-03T20:27:18.843Z,33.25
2024-02-03T20:29:45.855Z,29.00
2024-02-03T20:32:13.016Z,41.25
2024-02-03T20:34:44.184Z,38.50
2024-02-03T20:37:11.541Z,32.25
2024-02-03T20:39:39.006Z,38.00
2024-02-03T20:42:06.436Z,41.75
2024-02-03T20:44:33.485Z,33.50
2024-02-03T20:47:00.643Z,39.75
2024-02-03T20:49:30.298Z,44.00
2024-02-03T20:51:57.576Z,47.25
2024-02-03T20:54:24.952Z,29.25
2024-02-03T20:56:52.379Z,61.75
2024-02-03T20:59:19.397Z,48.25
2024-02-03T21:01:46.684Z,35.00
2024-02-03T21:04:14.315Z,47.50
2024-02-03T21:06:41.972Z,37.50
2024-02-03T21:09:10.127Z,44.75
2024-02-03T21:11:46.763Z,36.75
2024-02-03T21:14:15.370Z,23.50
2024-02-03T21:16:42.676Z,44.00
2024-02-03T21:19:10.046Z,35.50
2024-02-03T21:21:42.757Z,43.50
2024-02-03T21:24:10.225Z,33.75
2024-02-03T21:26:37.319Z,22.25
2024-02-03T21:29:04.851Z,41.00
2024-02-03T21:31:33.619Z,36.50
2024-02-03T21:34:02.057Z,34.00
2024-02-03T21:36:29.623Z,39.00
2024-02-03T21:38:57.197Z,33.75
2024-02-03T21:41:24.439Z,33.75
2024-02-03T21:43:53.320Z,32.75
2024-02-03T21:46:20.744Z,36.00
2024-02-03T21:48:49.917Z,30.50
2024-02-03T21:51:20.339Z,43.00
2024-02-03T21:53:47.420Z,32.50
2024-02-03T21:56:15.828Z,37.00
2024-02-03T21:58:43.338Z,25.75
2024-02-03T22:01:11.444Z,34.00
2024-02-03T22:03:39.466Z,29.25
2024-02-03T22:06:09.444Z,28.75
2024-02-03T22:08:37.022Z,24.75
2024-02-03T22:11:04.328Z,27.25
2024-02-03T22:13:31.709Z,34.50
2024-02-03T22:15:59.052Z,27.00
2024-02-03T22:18:26.439Z,40.00
2024-02-03T22:20:53.672Z,37.00
2024-02-03T22:23:21.038Z,37.00
2024-02-03T22:25:48.068Z,37.75
2024-02-03T22:28:15.696Z,37.25
2024-02-03T22:30:43.448Z,45.00
2024-02-03T22:33:10.690Z,41.50
2024-02-03T22:35:39.054Z,62.25
2024-02-03T22:38:06.082Z,53.50
2024-02-03T22:40:33.325Z,25.50
2024-02-03T22:43:00.571Z,33.25
2024-02-03T22:45:27.676Z,27.75
2024-02-03T22:47:55.008Z,41.25
2024-02-03T22:50:22.333Z,36.00
2024-02-03T22:52:49.569Z,44.25
2024-02-03T22:55:16.623Z,36.25
2024-02-03T22:57:43.759Z,49.75
2024-02-03T23:00:49.727Z,41.50
2024-02-03T23:03:18.281Z,34.50
2024-02-03T23:05:45.602Z,43.75
2024-02-03T23:08:12.948Z,44.75
2024-02-03T23:10:40.571Z,47.50
2024-02-03T23:13:08.440Z,30.00
2024-02-03T23:15:35.625Z,36.50
2024-02-03T23:18:02.634Z,40.50
2024-02-03T23:20:30.743Z,42.50
2024-02-03T23:22:57.749Z,43.00
2024-02-03T23:25:26.597Z,35.75
2024-02-03T23:27:54.026Z,37.50
2024-02-03T23:30:21.227Z,39.50
2024-02-03T23:32:48.545Z,33.00
2024-02-03T23:35:15.744Z,28.25
2024-02-03T23:37:42.655Z,34.50
2024-02-03T23:40:11.045Z,46.75
2024-02-03T23:42:38.456Z,18.50
2024-02-03T23:45:06.081Z,43.00
2024-02-03T23:47:33.520Z,32.00
2024-02-03T23:50:01.424Z,46.50
2024-02-03T23:52:28.549Z,39.50
2024-02-03T23:54:56.151Z,27.50
2024-02-03T23:57:23.323Z,23.50
2024-02-03T23:59:51.092Z,42.25
